Time;durP1;ratioP1;P1;durP2;ratioP2;P2;SDS_P1;SDS_P2;PMS_P1;PMS_P2;Temp;Humidity;BMP_temperature;BMP_pressure;BME280_temperature;BME280_humidity;BME280_pressure;Samples;Min_cycle;Max_cycle;Signal;HPM_P1;HPM_P2
2023/05/26 00:04:49;;;;;;;8.30;2.50;;;15.30;78.50;;;;;;10480600;28;20204;-65
2023/05/26 00:09:50;;;;;;;11.23;2.05;;;15.30;78.50;;;;;;10489825;28;20519;-66
2023/05/26 00:14:51;;;;;;;9.82;2.78;;;15.30;78.50;;;;;;10490255;28;20020;-65
2023/05/26 00:19:52;;;;;;;12.10;2.50;;;15.20;78.40;;;;;;10479872;28;20484;-64
2023/05/26 00:24:52;;;;;;;11.80;2.13;;;15.20;78.40;;;;;;10470993;28;20028;-65
2023/05/26 00:29:53;;;;;;;10.75;2.28;;;15.20;78.40;;;;;;10491361;28;20036;-66
2023/05/26 00:34:53;;;;;;;12.82;2.30;;;15.20;78.40;;;;;;10489333;28;20520;-66
2023/05/26 00:39:54;;;;;;;6.05;1.98;;;15.20;78.40;;;;;;10491246;28;20384;-66
2023/05/26 00:44:55;;;;;;;9.77;2.22;;;15.10;78.30;;;;;;10474199;28;20582;-66
2023/05/26 00:49:55;;;;;;;7.20;2.08;;;15.10;78.30;;;;;;10489209;28;20020;-66
2023/05/26 00:54:56;;;;;;;8.20;2.30;;;15.00;78.30;;;;;;10478025;28;20043;-65
2023/05/26 00:59:57;;;;;;;10.00;2.38;;;15.00;78.30;;;;;;10486127;28;20482;-65
2023/05/26 01:04:58;;;;;;;6.82;2.00;;;15.00;78.20;;;;;;10467132;28;20142;-66
2023/05/26 01:09:59;;;;;;;7.28;2.22;;;15.00;78.30;;;;;;10478721;28;20274;-65
2023/05/26 01:15:11;;;;;;;6.65;1.98;;;14.90;78.20;;;;;;10483834;28;20032;-65
2023/05/26 01:20:38;;;;;;;8.13;2.00;;;15.00;78.20;;;;;;10482134;28;20020;-65
2023/05/26 01:26:01;;;;;;;8.32;1.98;;;15.00;78.10;;;;;;10476500;28;20012;-65
2023/05/26 01:31:01;;;;;;;11.75;2.30;;;14.90;78.00;;;;;;10474359;28;20481;-65
2023/05/26 01:36:02;;;;;;;6.30;2.05;;;14.90;78.10;;;;;;10485944;28;20078;-65
2023/05/26 01:41:15;;;;;;;11.80;2.47;;;14.80;78.00;;;;;;10484564;28;20090;-64
2023/05/26 01:46:45;;;;;;;9.95;2.40;;;14.80;78.00;;;;;;10477175;28;20034;-66
2023/05/26 01:51:54;;;;;;;12.10;3.08;;;14.80;78.00;;;;;;10468808;28;20021;-66
2023/05/26 01:56:56;;;;;;;7.78;2.17;;;14.70;78.00;;;;;;10476856;28;20035;-66
2023/05/26 02:01:57;;;;;;;9.80;1.98;;;14.70;78.00;;;;;;10471606;28;20111;-66
2023/05/26 02:06:58;;;;;;;9.85;2.50;;;14.60;77.90;;;;;;10476797;28;20311;-65
2023/05/26 02:11:58;;;;;;;11.35;2.53;;;14.60;77.90;;;;;;10478022;28;20036;-64
2023/05/26 02:16:59;;;;;;;7.63;1.60;;;14.60;78.00;;;;;;10476808;28;20232;-66
2023/05/26 02:22:00;;;;;;;9.60;2.33;;;14.60;77.90;;;;;;10470407;28;20050;-65
2023/05/26 02:27:00;;;;;;;12.52;2.30;;;14.60;77.90;;;;;;10469201;28;20055;-65
2023/05/26 02:32:01;;;;;;;7.50;1.75;;;14.50;77.90;;;;;;10472211;28;20108;-65
2023/05/26 02:37:01;;;;;;;8.45;2.10;;;14.50;77.90;;;;;;10473875;28;20431;-65
2023/05/26 02:42:02;;;;;;;9.48;2.08;;;14.50;77.90;;;;;;10473846;28;20024;-65
2023/05/26 02:47:03;;;;;;;5.55;1.63;;;14.40;77.80;;;;;;10474105;28;20088;-65
2023/05/26 02:52:04;;;;;;;13.23;2.13;;;14.40;77.80;;;;;;10478084;28;20025;-66
2023/05/26 02:57:05;;;;;;;10.88;1.95;;;14.40;77.80;;;;;;10480723;28;20373;-65
2023/05/26 03:02:06;;;;;;;8.98;2.30;;;14.40;77.80;;;;;;10475479;28;20036;-66
2023/05/26 03:07:10;;;;;;;11.02;2.47;;;14.30;77.80;;;;;;10483372;28;20032;-66
2023/05/26 03:12:15;;;;;;;10.98;2.55;;;14.30;77.80;;;;;;10472615;28;20029;-66
2023/05/26 03:17:18;;;;;;;6.30;2.08;;;14.30;77.80;;;;;;10479666;28;20059;-67
2023/05/26 03:22:19;;;;;;;8.65;2.47;;;14.20;77.80;;;;;;10474802;28;20392;-67
2023/05/26 03:27:22;;;;;;;8.38;2.47;;;14.20;77.80;;;;;;10478168;28;20028;-66
2023/05/26 03:32:22;;;;;;;11.68;1.90;;;14.20;77.80;;;;;;10474447;28;20016;-66
2023/05/26 03:37:23;;;;;;;9.77;2.28;;;14.20;77.80;;;;;;10474107;28;20029;-66
2023/05/26 03:42:23;;;;;;;5.45;2.63;;;14.10;77.80;;;;;;10479234;28;20021;-66
2023/05/26 03:47:24;;;;;;;6.75;2.17;;;14.20;77.80;;;;;;10463634;28;20021;-67
2023/05/26 03:52:25;;;;;;;8.90;2.00;;;14.10;77.80;;;;;;10478988;28;20035;-67
2023/05/26 03:57:26;;;;;;;7.07;2.70;;;14.00;77.70;;;;;;10486220;28;20029;-67
2023/05/26 04:02:26;;;;;;;8.25;2.35;;;14.00;77.70;;;;;;10480892;28;20100;-67
2023/05/26 04:07:27;;;;;;;7.75;1.98;;;14.00;77.70;;;;;;10481682;28;20033;-66
2023/05/26 04:12:28;;;;;;;6.10;2.17;;;14.00;77.70;;;;;;10482231;28;20110;-66
2023/05/26 04:17:28;;;;;;;7.35;2.10;;;14.00;77.70;;;;;;10486294;28;20032;-66
2023/05/26 04:22:29;;;;;;;3.72;1.80;;;13.90;77.60;;;;;;10480926;28;20098;-66
2023/05/26 04:27:30;;;;;;;7.97;1.90;;;13.90;77.60;;;;;;10477370;28;20032;-66
2023/05/26 04:32:33;;;;;;;11.48;2.05;;;13.90;77.60;;;;;;10486908;28;20056;-67
2023/05/26 04:37:34;;;;;;;6.93;2.00;;;13.90;77.60;;;;;;10485149;28;20029;-66
2023/05/26 04:42:38;;;;;;;9.05;1.85;;;14.00;77.60;;;;;;10487911;28;20016;-67
2023/05/26 04:47:39;;;;;;;8.63;2.53;;;13.90;77.60;;;;;;10486164;28;20047;-67
2023/05/26 04:52:41;;;;;;;6.28;2.13;;;13.90;77.60;;;;;;10493949;28;20103;-66
2023/05/26 04:57:43;;;;;;;9.75;2.22;;;13.90;78.20;;;;;;10476183;28;20123;-66
2023/05/26 05:02:43;;;;;;;9.90;2.35;;;13.80;77.60;;;;;;10480603;28;20486;-66
2023/05/26 05:07:49;;;;;;;7.70;2.10;;;13.80;77.70;;;;;;10474397;28;20028;-66
2023/05/26 05:12:51;;;;;;;6.20;1.77;;;13.80;77.70;;;;;;10478174;28;20028;-66
2023/05/26 05:17:52;;;;;;;6.93;1.52;;;13.80;77.70;;;;;;10493439;28;20028;-66
2023/05/26 05:22:54;;;;;;;8.38;2.92;;;13.80;77.70;;;;;;10503398;28;20055;-66
2023/05/26 05:27:55;;;;;;;8.77;2.13;;;13.80;77.80;;;;;;10491069;28;20120;-66
2023/05/26 05:32:55;;;;;;;7.32;1.60;;;13.80;77.80;;;;;;10487712;28;20408;-66
2023/05/26 05:37:57;;;;;;;8.00;2.05;;;13.80;77.80;;;;;;10485962;28;20032;-69
2023/05/26 05:42:58;;;;;;;6.07;2.17;;;13.80;77.90;;;;;;10480107;28;20504;-68
2023/05/26 05:47:58;;;;;;;6.90;2.42;;;13.80;77.90;;;;;;10484877;28;20032;-68
2023/05/26 05:52:59;;;;;;;7.28;2.20;;;13.80;77.90;;;;;;10488471;28;20210;-68
2023/05/26 05:57:59;;;;;;;10.60;3.08;;;13.80;77.90;;;;;;10491108;28;20025;-68
2023/05/26 06:03:00;;;;;;;7.22;2.35;;;13.80;78.00;;;;;;10466074;28;20040;-68
2023/05/26 06:08:01;;;;;;;8.45;2.50;;;13.80;78.00;;;;;;10471024;28;20059;-69
2023/05/26 06:13:01;;;;;;;8.10;2.80;;;13.80;78.10;;;;;;10480959;28;20044;-68
2023/05/26 06:18:02;;;;;;;9.63;2.63;;;13.80;78.10;;;;;;10477117;28;20484;-68
2023/05/26 06:23:03;;;;;;;10.38;3.10;;;13.80;78.10;;;;;;10472188;28;20035;-68
2023/05/26 06:28:04;;;;;;;6.85;2.35;;;13.80;78.20;;;;;;10473848;28;20027;-67
2023/05/26 06:33:05;;;;;;;9.07;2.75;;;13.80;78.40;;;;;;10468634;28;20514;-67
2023/05/26 06:38:05;;;;;;;7.38;2.50;;;13.90;78.60;;;;;;10473617;28;20024;-67
2023/05/26 06:43:06;;;;;;;7.78;2.67;;;13.90;78.70;;;;;;10477138;28;20024;-67
2023/05/26 06:48:07;;;;;;;8.43;3.10;;;13.90;78.80;;;;;;10472886;28;20028;-67
2023/05/26 06:53:08;;;;;;;10.00;2.78;;;14.00;78.90;;;;;;10483209;28;20033;-68
2023/05/26 06:58:08;;;;;;;8.82;2.88;;;13.90;79.10;;;;;;10483680;28;20025;-68
2023/05/26 07:03:09;;;;;;;9.75;3.25;;;13.90;79.10;;;;;;10479245;28;20116;-68
2023/05/26 07:08:09;;;;;;;8.32;2.65;;;14.00;79.20;;;;;;10476025;28;20492;-67
2023/05/26 07:13:10;;;;;;;9.50;2.80;;;14.00;79.30;;;;;;10474571;28;20028;-67
2023/05/26 07:18:11;;;;;;;9.43;2.83;;;14.10;79.60;;;;;;10477693;28;20235;-67
2023/05/26 07:23:11;;;;;;;11.32;2.30;;;14.00;79.60;;;;;;10484899;28;20104;-67
2023/05/26 07:28:12;;;;;;;18.95;3.45;;;14.10;80.00;;;;;;10479867;28;20087;-68
2023/05/26 07:33:13;;;;;;;12.93;3.10;;;14.10;80.50;;;;;;10479787;28;20016;-68
2023/05/26 07:38:13;;;;;;;9.32;2.83;;;14.20;80.30;;;;;;10473991;28;20024;-68
2023/05/26 07:43:14;;;;;;;9.18;2.50;;;14.20;80.20;;;;;;10492155;28;20034;-68
2023/05/26 07:48:14;;;;;;;11.60;3.45;;;14.30;80.20;;;;;;10488726;28;20081;-68
2023/05/26 07:53:15;;;;;;;10.52;2.80;;;14.30;80.10;;;;;;10480038;28;20024;-67
2023/05/26 07:58:17;;;;;;;10.38;2.67;;;14.40;80.50;;;;;;10483478;28;20015;-68
2023/05/26 08:03:17;;;;;;;7.55;2.60;;;14.40;80.30;;;;;;10483788;28;20055;-68
2023/05/26 08:08:18;;;;;;;6.68;2.70;;;14.50;80.60;;;;;;10480011;28;20561;-68
2023/05/26 08:13:19;;;;;;;10.50;3.08;;;14.50;80.60;;;;;;10483270;28;20047;-67
2023/05/26 08:18:19;;;;;;;6.97;2.65;;;14.50;80.90;;;;;;10480312;28;20028;-68
2023/05/26 08:23:20;;;;;;;10.25;3.10;;;14.60;80.90;;;;;;10483629;28;20009;-68
2023/05/26 08:28:21;;;;;;;8.90;2.70;;;14.60;81.00;;;;;;10478209;28;20052;-67
2023/05/26 08:33:21;;;;;;;8.10;2.30;;;14.60;80.90;;;;;;10479662;28;20037;-67
2023/05/26 08:38:22;;;;;;;10.25;2.80;;;14.60;80.90;;;;;;10479265;28;20043;-67
2023/05/26 08:43:28;;;;;;;9.38;2.58;;;14.70;80.90;;;;;;10497064;28;20028;-67
2023/05/26 08:48:29;;;;;;;5.30;2.28;;;14.70;81.00;;;;;;10486588;28;20492;-67
2023/05/26 08:53:31;;;;;;;15.73;2.90;;;14.70;80.80;;;;;;10479447;28;20025;-67
2023/05/26 08:58:33;;;;;;;6.88;1.85;;;14.80;80.90;;;;;;10479126;28;20115;-68
2023/05/26 09:03:34;;;;;;;5.38;2.08;;;14.80;81.20;;;;;;10481926;28;20029;-67
2023/05/26 09:08:34;;;;;;;7.45;1.80;;;14.80;81.30;;;;;;10483399;28;20036;-68
2023/05/26 09:13:39;;;;;;;7.75;2.28;;;14.80;81.60;;;;;;10478243;28;20044;-67
2023/05/26 09:18:43;;;;;;;6.20;2.17;;;14.90;81.70;;;;;;10482372;28;20028;-67
2023/05/26 09:23:45;;;;;;;9.45;2.63;;;14.90;81.70;;;;;;10487749;28;20101;-67
2023/05/26 09:28:49;;;;;;;4.68;1.92;;;15.00;81.50;;;;;;10494153;28;20019;-67
2023/05/26 09:33:50;;;;;;;6.70;1.80;;;15.00;81.30;;;;;;10482223;28;20539;-67
2023/05/26 09:38:52;;;;;;;5.63;2.05;;;15.00;81.40;;;;;;10482437;28;20025;-67
2023/05/26 09:44:07;;;;;;;4.35;1.48;;;15.00;81.20;;;;;;10489242;28;20080;-67
2023/05/26 09:49:18;;;;;;;7.45;1.90;;;15.20;81.50;;;;;;10490249;28;20035;-67
2023/05/26 09:54:19;;;;;;;4.13;1.98;;;15.10;81.30;;;;;;10494348;28;20028;-67
2023/05/26 09:59:21;;;;;;;6.78;2.22;;;15.20;81.30;;;;;;10483939;28;20025;-67
2023/05/26 10:04:22;;;;;;;5.20;1.55;;;15.20;81.30;;;;;;10483910;28;20040;-67
2023/05/26 10:09:24;;;;;;;5.10;1.80;;;15.30;81.40;;;;;;10483777;28;20487;-67
2023/05/26 10:14:25;;;;;;;8.45;1.95;;;15.30;81.30;;;;;;10482475;28;20036;-67
2023/05/26 10:19:26;;;;;;;6.50;1.92;;;15.40;81.00;;;;;;10488149;28;20078;-67
2023/05/26 10:24:39;;;;;;;5.65;1.90;;;15.40;80.90;;;;;;10489567;28;20024;-67
2023/05/26 10:29:54;;;;;;;8.10;1.60;;;15.50;81.50;;;;;;10477543;28;20056;-67
2023/05/26 10:34:56;;;;;;;5.28;1.70;;;15.50;81.40;;;;;;10492329;28;20399;-67
2023/05/26 10:39:56;;;;;;;4.10;1.75;;;15.60;81.40;;;;;;10489381;28;20623;-67
2023/05/26 10:44:57;;;;;;;5.50;2.05;;;15.60;81.20;;;;;;10486161;28;20120;-67
2023/05/26 10:49:58;;;;;;;6.03;1.60;;;15.70;81.30;;;;;;10492423;28;20519;-67
2023/05/26 10:55:00;;;;;;;6.03;1.50;;;15.70;81.30;;;;;;10482314;28;20399;-67
2023/05/26 11:00:26;;;;;;;4.28;1.85;;;15.80;81.30;;;;;;10483202;28;20036;-67
2023/05/26 11:05:31;;;;;;;5.75;1.83;;;15.80;81.70;;;;;;10507431;28;20020;-67
2023/05/26 11:11:04;;;;;;;5.00;1.55;;;15.90;81.50;;;;;;10495252;28;20028;-67
2023/05/26 11:16:25;;;;;;;5.38;1.60;;;15.90;81.50;;;;;;10494955;28;20032;-67
2023/05/26 11:21:27;;;;;;;4.07;1.30;;;16.00;81.50;;;;;;10488046;28;20037;-67
2023/05/26 11:26:31;;;;;;;9.32;1.98;;;16.10;81.30;;;;;;10485376;28;20416;-67
2023/05/26 11:31:32;;;;;;;3.67;1.75;;;16.10;81.20;;;;;;10490464;28;20523;-67
2023/05/26 11:36:34;;;;;;;4.57;1.50;;;16.20;81.00;;;;;;10489159;28;20021;-67
2023/05/26 11:41:35;;;;;;;7.28;1.70;;;16.20;80.90;;;;;;10486652;28;20024;-67
2023/05/26 11:46:40;;;;;;;6.15;1.50;;;16.30;80.90;;;;;;10483728;28;20410;-67
2023/05/26 11:51:47;;;;;;;5.60;1.70;;;16.40;80.80;;;;;;10476576;28;20395;-67
2023/05/26 11:56:51;;;;;;;6.07;1.70;;;16.50;80.90;;;;;;10475307;28;20041;-67
2023/05/26 12:01:51;;;;;;;5.82;1.63;;;16.50;80.70;;;;;;10486793;28;20124;-67
2023/05/26 12:06:52;;;;;;;6.95;2.05;;;16.60;80.70;;;;;;10486485;28;20025;-67
2023/05/26 12:11:53;;;;;;;4.63;1.40;;;16.60;80.80;;;;;;10475268;28;20033;-67
2023/05/26 12:16:55;;;;;;;4.55;1.80;;;16.70;80.60;;;;;;10485918;28;20412;-67
2023/05/26 12:21:58;;;;;;;6.82;2.15;;;16.70;80.50;;;;;;10489546;28;20025;-67
2023/05/26 12:27:06;;;;;;;5.20;1.65;;;16.80;80.50;;;;;;10485656;28;20435;-67
2023/05/26 12:32:07;;;;;;;5.30;1.60;;;16.90;80.60;;;;;;10475681;28;20025;-67
2023/05/26 12:37:08;;;;;;;4.47;1.63;;;16.90;80.50;;;;;;10485786;28;20047;-67
2023/05/26 12:42:09;;;;;;;5.82;1.52;;;16.80;80.40;;;;;;10491835;28;20210;-67
2023/05/26 12:47:10;;;;;;;3.42;1.25;;;17.00;80.50;;;;;;10480070;28;20056;-67
2023/05/26 12:52:10;;;;;;;3.47;1.40;;;17.10;80.50;;;;;;10483097;28;20544;-67
2023/05/26 12:57:11;;;;;;;5.85;2.00;;;17.10;80.60;;;;;;10479796;28;20357;-67
2023/05/26 13:02:12;;;;;;;5.65;1.63;;;17.20;80.50;;;;;;10480544;28;20025;-67
2023/05/26 13:07:12;;;;;;;4.38;1.40;;;17.20;80.60;;;;;;10486464;28;20035;-67
2023/05/26 13:12:13;;;;;;;5.82;1.83;;;17.30;80.70;;;;;;10483996;28;20089;-67
2023/05/26 13:17:13;;;;;;;4.63;1.40;;;17.30;80.70;;;;;;10486440;28;20036;-67
2023/05/26 13:22:14;;;;;;;5.63;1.60;;;17.40;80.80;;;;;;10483103;28;20029;-67
2023/05/26 13:27:15;;;;;;;5.00;1.67;;;17.50;80.60;;;;;;10480990;28;20028;-67
2023/05/26 13:32:15;;;;;;;6.25;2.20;;;17.60;80.50;;;;;;10480931;28;20444;-67
2023/05/26 13:37:16;;;;;;;6.15;2.13;;;17.70;80.40;;;;;;10485879;28;20488;-67
2023/05/26 13:42:16;;;;;;;4.80;1.60;;;17.90;80.40;;;;;;10493552;28;20016;-67
2023/05/26 13:47:17;;;;;;;4.22;1.45;;;17.90;80.20;;;;;;10489894;28;20058;-67
2023/05/26 13:52:18;;;;;;;6.72;1.70;;;18.00;80.10;;;;;;10490561;28;20449;-67
2023/05/26 13:57:18;;;;;;;4.00;2.30;;;18.20;80.00;;;;;;10485088;28;20086;-67
2023/05/26 14:02:19;;;;;;;4.05;1.58;;;18.20;79.70;;;;;;10482950;28;20499;-67
2023/05/26 14:07:20;;;;;;;5.10;1.60;;;18.30;79.70;;;;;;10479813;28;20545;-67
2023/05/26 14:12:21;;;;;;;6.13;2.50;;;18.40;79.50;;;;;;10479741;28;20119;-67
2023/05/26 14:17:22;;;;;;;6.15;1.70;;;18.50;79.50;;;;;;10485099;28;20036;-67
2023/05/26 14:22:23;;;;;;;5.70;2.25;;;18.60;79.60;;;;;;10479981;28;20039;-67
2023/05/26 14:27:23;;;;;;;6.70;1.85;;;18.60;79.30;;;;;;10474274;28;20032;-67
2023/05/26 14:32:25;;;;;;;5.35;1.77;;;18.70;79.30;;;;;;10488464;28;20546;-67
2023/05/26 14:37:27;;;;;;;6.13;1.75;;;18.80;79.10;;;;;;10482824;28;20316;-67
2023/05/26 14:42:28;;;;;;;4.53;1.90;;;18.80;79.20;;;;;;10489836;28;20078;-67
2023/05/26 14:47:29;;;;;;;5.53;1.80;;;18.80;79.00;;;;;;10478303;28;20036;-67
2023/05/26 14:52:29;;;;;;;5.38;1.45;;;19.00;79.10;;;;;;10474364;28;20039;-67
2023/05/26 14:57:30;;;;;;;6.35;1.85;;;19.00;79.00;;;;;;10483020;28;20121;-67
2023/05/26 15:02:30;;;;;;;4.10;1.52;;;19.20;79.00;;;;;;10483617;28;20493;-67
2023/05/26 15:07:31;;;;;;;7.18;1.83;;;19.20;78.70;;;;;;10482661;28;20028;-67
2023/05/26 15:12:35;;;;;;;4.85;2.10;;;19.40;78.70;;;;;;10480503;28;20408;-67
2023/05/26 15:17:36;;;;;;;8.00;1.50;;;19.40;78.40;;;;;;10482866;28;20020;-67
2023/05/26 15:22:36;;;;;;;4.05;1.63;;;19.50;78.50;;;;;;10490573;28;20020;-67
2023/05/26 15:27:37;;;;;;;6.28;1.67;;;19.50;78.60;;;;;;10489661;28;20503;-67
2023/05/26 15:32:38;;;;;;;5.60;1.92;;;19.60;78.60;;;;;;10486245;28;20095;-67
2023/05/26 15:37:39;;;;;;;5.13;1.70;;;19.60;78.50;;;;;;10495474;28;20028;-67
2023/05/26 15:42:40;;;;;;;3.42;1.40;;;19.70;78.70;;;;;;10491006;28;20020;-67
2023/05/26 15:47:41;;;;;;;5.55;1.70;;;19.80;78.70;;;;;;10480396;28;20021;-67
2023/05/26 15:52:41;;;;;;;4.45;1.80;;;19.70;78.80;;;;;;10492825;28;20024;-67
2023/05/26 15:57:42;;;;;;;3.85;1.50;;;19.70;79.00;;;;;;10493733;28;20024;-67
2023/05/26 16:02:43;;;;;;;3.45;1.58;;;19.70;79.30;;;;;;10485374;28;20021;-67
2023/05/26 16:07:43;;;;;;;5.85;1.63;;;19.60;79.60;;;;;;10491327;28;20505;-67
2023/05/26 16:12:44;;;;;;;7.20;1.73;;;19.60;79.80;;;;;;10488702;28;20036;-67
2023/05/26 16:17:44;;;;;;;6.18;1.80;;;19.50;80.10;;;;;;10488794;28;20108;-67
2023/05/26 16:22:49;;;;;;;4.97;1.92;;;19.40;80.30;;;;;;10492309;28;20016;-67
2023/05/26 16:27:50;;;;;;;3.90;1.80;;;19.40;80.50;;;;;;10487400;28;20031;-67
2023/05/26 16:32:50;;;;;;;4.95;2.05;;;19.40;80.60;;;;;;10482167;28;20020;-67
2023/05/26 16:37:51;;;;;;;4.40;1.80;;;19.30;80.70;;;;;;10484580;28;20060;-66
2023/05/26 16:42:52;;;;;;;5.72;1.73;;;19.20;80.80;;;;;;10492590;28;20352;-67
2023/05/26 16:47:52;;;;;;;7.38;1.92;;;19.20;80.90;;;;;;10477388;28;20078;-67
2023/05/26 16:52:53;;;;;;;4.00;1.33;;;19.20;80.90;;;;;;10490566;28;20054;-67
2023/05/26 16:57:54;;;;;;;2.53;1.60;;;19.10;80.90;;;;;;10481375;28;20032;-67
2023/05/26 17:02:54;;;;;;;4.72;1.70;;;19.20;81.10;;;;;;10474109;28;20111;-67
2023/05/26 17:07:55;;;;;;;4.10;1.73;;;19.00;81.10;;;;;;10474985;28;20098;-67
2023/05/26 17:12:56;;;;;;;4.63;1.40;;;19.00;80.90;;;;;;10475146;28;20036;-67
2023/05/26 17:17:57;;;;;;;4.47;1.73;;;18.90;81.00;;;;;;10482475;28;20016;-67
2023/05/26 17:22:59;;;;;;;6.03;1.88;;;18.80;81.00;;;;;;10482857;28;20483;-67
2023/05/26 17:28:00;;;;;;;7.22;2.30;;;18.80;81.00;;;;;;10478575;28;20252;-67
2023/05/26 17:33:01;;;;;;;4.43;1.90;;;18.80;80.90;;;;;;10482084;28;20075;-67
2023/05/26 17:38:02;;;;;;;6.75;2.20;;;18.80;81.00;;;;;;10493585;28;20361;-67
2023/05/26 17:43:03;;;;;;;5.28;2.25;;;18.70;80.90;;;;;;10478491;28;20122;-67
2023/05/26 17:48:03;;;;;;;5.75;2.05;;;18.70;80.70;;;;;;10482526;28;20092;-67
2023/05/26 17:53:04;;;;;;;9.52;2.17;;;18.70;80.80;;;;;;10488450;28;20024;-67
2023/05/26 17:58:05;;;;;;;6.50;2.55;;;18.60;80.50;;;;;;10493422;28;20028;-67
2023/05/26 18:03:06;;;;;;;3.83;1.80;;;18.60;80.60;;;;;;10476791;28;20023;-67
2023/05/26 18:08:06;;;;;;;4.28;2.08;;;18.50;80.60;;;;;;10484556;28;20101;-67
2023/05/26 18:13:07;;;;;;;5.38;1.77;;;18.50;80.50;;;;;;10485267;28;20035;-68
2023/05/26 18:18:08;;;;;;;6.70;3.63;;;18.40;80.50;;;;;;10482222;28;20036;-66
2023/05/26 18:23:10;;;;;;;5.53;2.45;;;18.40;80.40;;;;;;10481939;28;20027;-67
2023/05/26 18:28:11;;;;;;;6.95;2.05;;;18.40;80.40;;;;;;10484029;28;20447;-67
2023/05/26 18:33:12;;;;;;;5.75;1.90;;;18.30;80.20;;;;;;10477431;28;20059;-67
2023/05/26 18:38:13;;;;;;;6.15;1.90;;;18.20;80.20;;;;;;10478211;28;20443;-67
2023/05/26 18:43:14;;;;;;;7.35;1.98;;;18.20;80.30;;;;;;10477673;28;20016;-67
2023/05/26 18:48:15;;;;;;;5.43;2.22;;;18.00;80.50;;;;;;10485831;28;20059;-67
2023/05/26 18:53:18;;;;;;;6.30;1.77;;;18.10;80.70;;;;;;10488745;28;20116;-67
2023/05/26 18:58:19;;;;;;;5.65;2.15;;;18.00;80.60;;;;;;10479401;28;20534;-67
2023/05/26 19:03:19;;;;;;;7.90;2.35;;;18.00;80.80;;;;;;10489054;28;20533;-67
2023/05/26 19:08:20;;;;;;;6.30;2.17;;;17.90;80.90;;;;;;10482034;28;20055;-67
2023/05/26 19:13:21;;;;;;;5.97;2.22;;;17.90;80.90;;;;;;10481594;28;20032;-67
2023/05/26 19:18:21;;;;;;;4.70;2.00;;;17.80;80.90;;;;;;10484452;28;20021;-67
2023/05/26 19:23:24;;;;;;;5.35;2.10;;;17.80;80.90;;;;;;10483105;28;20017;-67
2023/05/26 19:28:25;;;;;;;9.25;2.67;;;17.70;80.90;;;;;;10493969;28;20424;-67
2023/05/26 19:33:26;;;;;;;7.13;2.05;;;17.70;81.00;;;;;;10494738;28;20032;-67
2023/05/26 19:38:27;;;;;;;7.18;1.98;;;17.60;80.90;;;;;;10495719;28;20016;-67
2023/05/26 19:43:27;;;;;;;4.75;1.90;;;17.60;81.00;;;;;;10497216;28;20293;-67
2023/05/26 19:48:28;;;;;;;4.32;1.80;;;17.50;81.00;;;;;;10498648;28;20013;-67
2023/05/26 19:53:29;;;;;;;7.93;2.53;;;17.40;81.00;;;;;;10503049;28;20129;-67
2023/05/26 19:58:30;;;;;;;11.50;2.33;;;17.30;80.90;;;;;;10481607;28;20025;-67
2023/05/26 20:03:31;;;;;;;6.93;2.50;;;17.30;80.80;;;;;;10494774;28;20426;-67
2023/05/26 20:08:32;;;;;;;7.95;2.60;;;17.30;80.80;;;;;;10492379;28;20025;-67
2023/05/26 20:13:36;;;;;;;6.82;2.10;;;17.30;80.60;;;;;;10484011;28;20048;-67
2023/05/26 20:18:37;;;;;;;9.60;2.10;;;17.20;80.50;;;;;;10482538;28;20100;-67
2023/05/26 20:23:37;;;;;;;6.28;2.08;;;17.20;80.40;;;;;;10491084;28;20020;-67
2023/05/26 20:28:38;;;;;;;5.43;2.00;;;17.10;80.40;;;;;;10489004;28;20029;-67
2023/05/26 20:33:38;;;;;;;4.75;1.88;;;17.10;80.30;;;;;;10490276;28;20052;-67
2023/05/26 20:38:40;;;;;;;6.88;1.88;;;17.00;80.20;;;;;;10484946;28;20020;-67
2023/05/26 20:43:40;;;;;;;7.18;1.70;;;17.00;80.10;;;;;;10495436;28;20024;-67
2023/05/26 20:48:42;;;;;;;6.32;2.40;;;17.00;80.10;;;;;;10495964;28;20024;-67
2023/05/26 20:53:45;;;;;;;5.43;2.00;;;16.90;79.90;;;;;;10484876;28;20384;-67
2023/05/26 20:58:46;;;;;;;4.88;1.70;;;16.90;79.80;;;;;;10492678;28;20099;-66
2023/05/26 21:03:46;;;;;;;4.28;1.92;;;16.80;79.80;;;;;;10484284;28;20118;-66
2023/05/26 21:08:47;;;;;;;7.57;1.95;;;16.80;79.80;;;;;;10487746;28;20090;-65
2023/05/26 21:13:47;;;;;;;4.45;1.80;;;16.70;80.30;;;;;;10486366;28;20039;-66
2023/05/26 21:18:48;;;;;;;7.70;1.98;;;16.70;79.60;;;;;;10495165;28;20032;-66
2023/05/26 21:23:48;;;;;;;9.20;2.55;;;16.70;79.60;;;;;;10501840;28;20020;-66
2023/05/26 21:28:49;;;;;;;7.43;2.53;;;16.70;79.50;;;;;;10504525;28;20487;-66
2023/05/26 21:33:50;;;;;;;5.40;2.10;;;16.60;79.40;;;;;;10482376;28;20498;-66
2023/05/26 21:38:51;;;;;;;10.18;2.28;;;16.50;79.30;;;;;;10479734;28;20031;-66
2023/05/26 21:43:52;;;;;;;7.13;2.33;;;16.50;79.30;;;;;;10481255;28;20017;-65
2023/05/26 21:48:52;;;;;;;4.72;2.30;;;16.40;79.20;;;;;;10476654;28;20028;-66
2023/05/26 21:53:53;;;;;;;4.63;2.10;;;16.50;79.20;;;;;;10481722;28;20048;-66
2023/05/26 21:58:54;;;;;;;6.40;2.50;;;16.40;79.10;;;;;;10470232;28;20247;-66
2023/05/26 22:03:55;;;;;;;9.98;2.38;;;16.30;79.00;;;;;;10478570;28;20085;-66
2023/05/26 22:08:55;;;;;;;7.43;2.40;;;16.30;79.00;;;;;;10472014;28;20060;-66
2023/05/26 22:13:56;;;;;;;8.10;2.05;;;16.20;78.90;;;;;;10468487;28;20732;-65
2023/05/26 22:18:57;;;;;;;5.72;2.22;;;16.20;78.90;;;;;;10484375;28;20061;-66
2023/05/26 22:23:57;;;;;;;5.20;2.80;;;16.20;78.90;;;;;;10477841;28;20021;-66
2023/05/26 22:28:58;;;;;;;7.07;2.55;;;16.10;78.90;;;;;;10474600;28;20075;-66
2023/05/26 22:33:59;;;;;;;6.72;2.90;;;16.10;78.80;;;;;;10480423;28;20059;-66
2023/05/26 22:39:03;;;;;;;6.25;2.55;;;16.10;78.80;;;;;;10473707;28;20024;-65
2023/05/26 22:44:04;;;;;;;7.25;2.85;;;16.00;78.80;;;;;;10476321;28;20125;-66
2023/05/26 22:49:05;;;;;;;11.20;2.92;;;16.10;78.90;;;;;;10464458;28;20119;-66
2023/05/26 22:54:06;;;;;;;7.97;3.30;;;16.00;78.80;;;;;;10480296;28;20557;-66
2023/05/26 22:59:06;;;;;;;9.68;2.83;;;15.90;78.70;;;;;;10481214;28;20028;-66
2023/05/26 23:04:07;;;;;;;6.68;2.72;;;15.90;78.80;;;;;;10482147;28;20070;-66
2023/05/26 23:09:07;;;;;;;8.32;2.50;;;15.80;78.70;;;;;;10481696;28;20033;-65
2023/05/26 23:14:09;;;;;;;6.68;2.30;;;15.80;78.80;;;;;;10491929;28;20036;-66
2023/05/26 23:19:11;;;;;;;10.82;2.80;;;15.80;78.80;;;;;;10485676;28;20020;-66
2023/05/26 23:24:12;;;;;;;6.95;2.70;;;15.70;78.70;;;;;;10481497;28;20056;-66
2023/05/26 23:29:12;;;;;;;8.93;2.47;;;15.70;78.80;;;;;;10491656;28;20036;-66
2023/05/26 23:34:14;;;;;;;5.25;2.60;;;15.70;78.80;;;;;;10491691;28;20028;-65
2023/05/26 23:39:14;;;;;;;7.03;2.80;;;15.60;78.80;;;;;;10495190;28;20027;-66
2023/05/26 23:44:15;;;;;;;5.88;2.35;;;15.60;78.80;;;;;;10485432;28;20028;-66
2023/05/26 23:49:16;;;;;;;4.90;2.50;;;15.60;78.80;;;;;;10483839;28;20093;-66
2023/05/26 23:54:16;;;;;;;11.63;2.75;;;15.50;78.70;;;;;;10473715;28;20303;-66
2023/05/26 23:59:17;;;;;;;7.50;2.70;;;15.50;78.70;;;;;;10489452;28;20043;-65
